Geokinetics Inc (NASDAQOTH:GEOKQ)

CAPS Rating: 2 out of 5

The Company is a global provider of seismic data acquisition services in land, marsh and swamp and shallow water environments to the oil and natural gas industry.

Results 1 - 99 of 121 : 1 2 Next »
Top
Pick
Member Name Member
Rating
Start
Date
Call Time
Frame
Start
Price
Stock
Gain
Index
Gain
Score Commentary
artcorvelay < 20 5/14/2012 Outperform 1Y $1.32 -99.43% +57.01% -156.45 0 Comment
MoneyPlusSport < 20 1/25/2012 Underperform 5Y $2.00 -99.62% +60.65% +160.28 0 Comment
jdparksASI < 20 9/7/2011 Outperform 5Y $4.60 -99.84% +75.70% -175.53 0 Comment
GreenHillFarAway 28.91 8/22/2011 Outperform 5Y $3.99 -99.81% +86.34% -186.15 0 Comment
Rehydrogenated 31.95 3/29/2011 Outperform 5Y $8.68 -99.91% +60.83% -160.75 0 Comment
2011Fool 99.49 3/25/2011 Outperform NS $8.99 -99.92% +60.68% -160.59 0 Comment
LEGMAKER < 20 2/28/2011 Outperform 5Y $10.59 -99.93% +58.76% -158.69 0 Comment
hcve < 20 1/12/2011 Outperform 3W $9.41 -99.92% +64.64% -164.56 0 Comment
MagicMaggie < 20 12/7/2010 Outperform 5Y $9.35 -99.92% +70.14% -170.06 0 Comment
OberHund < 20 12/6/2010 Outperform 5Y $9.29 -99.92% +71.96% -171.88 0 Comment
tiger6667 < 20 12/1/2010 Outperform 5Y $8.51 -99.91% +75.43% -175.34 0 Comment
bullinnature 95.49 11/9/2009 11/8/2010 Outperform 3Y $12.72 -99.94% +95.34% -195.28 0 Comment
cletedinero < 20 10/18/2010 Outperform 5Y $7.31 -99.90% +78.55% -178.45 0 Comment
brilin 64.79 10/4/2010 Outperform 5Y $6.00 -99.88% +84.38% -184.25 0 Comment
smallandmidcap 97.03 8/10/2010 Underperform 5Y $4.51 -99.83% +88.23% +188.06 0 Comment
roth450 44.90 7/20/2010 Outperform NS $3.99 -99.81% +99.18% -198.99 0 Comment
EffinObama < 20 7/19/2010 Outperform 3Y $4.06 -99.82% +97.78% -197.59 0 Comment
thisyearslosers < 20 6/29/2010 Outperform 5Y $4.12 -99.82% +101.52% -201.34 0 Comment
startunderfive < 20 6/28/2010 Outperform 5Y $4.49 -99.83% +95.83% -195.66 0 Comment
institutionsdown 64.77 6/22/2010 Outperform 5Y $4.88 -99.85% +89.27% -189.12 0 Comment
obsoleteaccount < 20 6/21/2010 Outperform 5Y $4.91 -99.85% +89.76% -189.61 0 Comment
jroren 99.19 6/21/2010 Underperform 3M $5.36 -99.86% +86.41% +186.27 0 Comment
alexdavismith 96.24 6/21/2010 Underperform 5Y $5.36 -99.86% +86.41% +186.27 0 Comment
iddqkfyou < 20 5/11/2010 Outperform 5Y $6.30 -99.88% +83.25% -183.13 1 Comment
asitka 27.84 5/3/2010 Outperform 1Y $8.74 -99.91% +76.64% -176.55 0 Comment
Genomac 38.57 4/26/2010 Outperform 5Y $9.58 -99.92% +73.06% -172.98 0 Comment
HotDdogv2 < 20 4/26/2010 Outperform 5Y $9.58 -99.92% +73.06% -172.98 0 Comment
aliuce 31.47 4/23/2010 Outperform NS $9.53 -99.92% +73.87% -173.79 0 Comment
iamvoltron 24.25 4/22/2010 Outperform 5Y $8.47 -99.91% +76.00% -175.92 0 Comment
explicitonline 54.29 4/20/2010 Underperform 1Y $8.28 -99.91% +74.58% +174.49 0 Comment
markantonythe3rd 30.96 4/20/2010 Outperform 5Y $8.21 -99.91% +74.85% -174.76 0 Comment
dashark44 94.52 4/19/2010 Outperform 5Y $7.81 -99.90% +77.53% -177.43 0 Comment
Powderiver < 20 4/12/2010 Outperform 5Y $7.94 -99.91% +76.12% -176.03 0 Comment
manjux < 20 4/1/2010 Underperform 3M $7.32 -99.90% +78.96% +178.86 0 Comment
blue2fire < 20 3/22/2010 Outperform 5Y $7.39 -99.90% +82.87% -182.77 0 Comment
StThomasMoreEsq2 93.68 12/29/2009 2/19/2010 Outperform 3M $9.89 -99.92% +87.08% -187.00 0 Comment
HasOrHasNot 22.98 1/28/2010 Outperform 3Y $10.04 -99.93% +91.33% -191.26 0 Comment
FreeMortal 29.20 1/20/2010 Outperform 5Y $10.34 -99.93% +85.71% -185.63 0 Comment
StGiannaMolla < 20 1/11/2010 Outperform 5Y $10.53 -99.93% +83.75% -183.68 0 Comment
Clockworker < 20 1/6/2010 Outperform 5Y $9.84 -99.92% +85.64% -185.57 0 Comment
TMFPlatoish 98.13 12/16/2009 Outperform 5Y $9.27 -99.92% +88.33% -188.25 0 Comment
chinneymartin 80.41 11/13/2009 Outperform 5Y $13.20 -99.94% +91.84% -191.78 0 Comment
wkcgx2 < 20 11/9/2009 Outperform 5Y $13.18 -99.94% +94.29% -194.23 0 Comment
outperformONLY < 20 10/19/2009 Outperform 5Y $19.49 -99.96% +93.33% -193.30 0 Comment
pennycruncher 40.44 10/19/2009 Outperform 5Y $19.49 -99.96% +93.33% -193.30 0 Comment
GIGManager < 20 10/8/2009 Outperform 3Y $19.24 -99.96% +97.50% -197.46 0 Comment
TotalStrange 97.52 8/12/2009 Outperform 1Y $14.58 -99.95% +110.30% -210.25 0 Comment
jddubya < 20 6/5/2009 Outperform 5Y $14.81 -99.95% +124.77% -224.72 0 Comment
TXmaverick < 20 6/2/2009 Underperform 3W $14.00 -99.95% +124.38% +224.32 1 Comment
marcet 71.66 5/28/2009 Outperform 5Y $13.26 -99.94% +134.38% -234.32 0 Comment
cwimbish 22.08 5/28/2009 Outperform 5Y $11.46 -99.93% +135.54% -235.48 1 Comment
theMovement 80.20 5/21/2009 Outperform 1Y $9.86 -99.92% +138.17% -238.09 0 Comment
unstoppablepeon < 20 10/27/2008 Underperform NS $6.01 -99.88% +150.12% +250.00 1 Comment
moonleg 23.32 10/22/2008 Underperform 1Y $6.45 -99.88% +132.00% +231.88 0 Comment
Chiownknee 80.03 10/20/2008 Outperform 5Y $8.28 -99.91% +124.52% -224.43 0 Comment
IWalker182 25.08 10/17/2008 Outperform NS $8.44 -99.91% +127.40% -227.31 0 Comment
wakoma < 20 10/8/2008 Outperform NS $12.80 -99.94% +121.83% -221.77 1 Comment
istilldontcare 96.82 9/18/2008 Outperform 5Y $17.34 -99.96% +86.04% -186.00 0 Comment
unotsomuch < 20 8/20/2008 Outperform 3Y $19.10 -99.96% +70.82% -170.78 0 Comment
ejtrains 52.50 8/11/2008 Outperform NS $20.00 -99.96% +68.04% -168.00 0 Comment
joetheboss 56.38 6/11/2008 Outperform 3Y $19.57 -99.96% +61.90% -161.86 1 Comment
Sqwii < 20 6/10/2008 Outperform 1Y $20.32 -99.96% +60.40% -160.36 1 Comment
floridabull33 61.89 5/22/2008 Outperform 3M $20.64 -99.96% +56.93% -156.89 0 Comment
GDragonsDad 60.23 5/7/2008 Outperform NS $19.04 -99.96% +55.00% -154.96 0 Comment
TexasGeoTech < 20 4/30/2008 Outperform 3M $19.04 -99.96% +56.34% -156.30 0 Comment
JCASS714 55.56 4/29/2008 Outperform 5Y $18.82 -99.96% +56.95% -156.91 0 Comment
tuckerjack 25.01 4/17/2008 Outperform 5Y $19.60 -99.96% +60.58% -160.54 0 Comment
greengal1 < 20 4/17/2008 Outperform 3Y $19.60 -99.96% +60.58% -160.54 1 Comment
ctnotebo 35.21 4/11/2008 Outperform 3Y $17.56 -99.96% +62.16% -162.12 0 Comment
louisianacoonie 22.81 3/31/2008 Outperform NS $17.95 -99.96% +65.60% -165.56 0 Comment
bengalmomof4 85.34 3/28/2008 Underperform 3M $17.78 -99.96% +64.44% +164.40 0 Comment
chad07gt 23.19 3/27/2008 Outperform NS $17.78 -99.96% +64.22% -164.18 0 Comment
MoltenTofu < 20 3/14/2008 Outperform NS $17.34 -99.96% +65.52% -165.47 0 Comment
AgendaPacific 35.40 3/14/2008 Outperform 3Y $17.34 -99.96% +65.52% -165.47 0 Comment
ToeInsider 27.75 3/10/2008 Outperform NS $16.26 -99.95% +69.30% -169.25 0 Comment
altitudeaddict 30.56 2/28/2008 Outperform 5Y $17.94 -99.96% +60.13% -160.09 0 Comment
tritterup 49.46 2/26/2008 Outperform NS $18.36 -99.96% +59.15% -159.11 0 Comment
arindamd < 20 2/26/2008 Outperform 1Y $17.79 -99.96% +60.16% -160.11 1 Comment
dmgchess 62.54 2/20/2008 Outperform 1Y $17.66 -99.96% +64.01% -163.97 0 Comment
aalvarma < 20 2/20/2008 Outperform 1Y $17.66 -99.96% +64.01% -163.97 0 Comment
thetoxman 76.58 2/14/2008 Outperform 1Y $17.31 -99.96% +60.47% -160.43 0 Comment
thatguy99 31.59 2/5/2008 Outperform 5Y $17.79 -99.96% +61.66% -161.62 0 Comment
mopomi 72.61 1/24/2008 Outperform 5Y $18.76 -99.96% +63.78% -163.74 0 Comment
ATWDLimited < 20 1/23/2008 Outperform NS $18.34 -99.96% +69.27% -169.23 0 Comment
financeman101 < 20 1/17/2008 Outperform NS $16.85 -99.96% +65.00% -164.96 0 Comment
evreeland 28.05 1/16/2008 Outperform 1Y $16.25 -99.95% +60.45% -160.41 0 Comment
Obyss 53.04 12/31/2007 Outperform 3W $19.14 -99.96% +49.40% -149.36 0 Comment
Kenster35OR 43.13 12/24/2007 Outperform 1Y $20.20 -99.96% +47.67% -147.63 0 Comment
StockRakedotcom < 20 12/13/2007 Outperform NS $22.40 -99.97% +48.96% -148.92 0 Comment
everything4less 47.60 12/13/2007 Outperform 1Y $22.40 -99.97% +48.96% -148.92 0 Comment
beachlokal < 20 12/12/2007 Outperform 5Y $23.10 -99.97% +47.78% -147.75 0 Comment
WavingSpices < 20 12/5/2007 Outperform NS $22.10 -99.97% +49.02% -148.99 0 Comment
SaltyGenes 46.56 11/27/2007 Outperform 5Y $22.14 -99.97% +55.87% -155.83 0 Comment
apper < 20 11/21/2007 Outperform 5Y $22.58 -99.97% +55.45% -155.42 0 Comment
ProjectJack < 20 11/5/2007 Outperform 1Y $19.90 -99.96% +46.98% -146.94 0 Comment
IntenseSpider 86.30 10/25/2007 Outperform NS $22.86 -99.97% +47.05% -147.01 0 Comment
tv5cents 95.22 10/23/2007 Outperform 5Y $22.00 -99.97% +45.87% -145.83 0 Comment
JR9901 83.91 10/22/2007 Outperform 5Y $21.85 -99.97% +48.41% -148.38 0 Comment
Garranova 87.49 10/22/2007 Outperform NS $21.85 -99.97% +48.41% -148.38 0 Comment
Results 1 - 99 of 121 : 1 2 Next »

Featured Broker Partners


Advertisement